Terminal Aerodrome Forecast
Issued by NWS

Current Version | Previous Version | Text Only | Print | Product List | Glossary On
Versions: 1 2 3 4 5 6 7 8 9 10 11 12 13
051
FTUS46 KSGX 021734
TAFONT
TAF
KONT 021734Z 0218/0324 05030G40KT P6SM SKC
     FM030000 05015G25KT P6SM SKC
     FM031200 05012G20KT P6SM SKC
     FM032000 30010KT P6SM SKC=

USA.gov is the U.S. government's official web portal to all federal, state and local government web resources and services.